Time;durP1;ratioP1;P1;durP2;ratioP2;P2;SDS_P1;SDS_P2;PMS_P1;PMS_P2;Temp;Humidity;BMP_temperature;BMP_pressure;BME280_temperature;BME280_humidity;BME280_pressure;Samples;Min_cycle;Max_cycle;Signal;HPM_P1;HPM_P2
2021/12/06 06:30:23;;;;;;;5.80;4.95;;;;;;;-3.52;92.89;100459.06;6250454;22;20031;-80
2021/12/06 06:32:49;;;;;;;7.57;6.20;;;;;;;-3.60;92.74;100466.66;6233822;22;20028;-80
2021/12/06 06:35:15;;;;;;;13.60;8.55;;;;;;;-3.58;93.22;100462.41;6240312;23;20399;-80
2021/12/06 06:37:42;;;;;;;3.70;3.13;;;;;;;-3.53;93.27;100465.84;6191531;23;20117;-79
2021/12/06 06:40:08;;;;;;;5.13;4.68;;;;;;;-3.54;92.82;100466.72;6213949;23;20047;-82
2021/12/06 06:42:54;;;;;;;16.35;9.15;;;;;;;-3.52;92.62;100475.22;6239113;23;20447;-79
2021/12/06 06:45:41;;;;;;;14.13;8.32;;;;;;;-3.55;92.98;100479.44;6241326;23;20458;-80
2021/12/06 06:52:21;;;;;;;;;;;;;;;-3.55;93.06;100490.50;6240678;23;20085;-78
2021/12/06 06:54:51;;;;;;;7.35;5.50;;;;;;;-3.82;92.63;100451.91;6221654;23;20270;-81
2021/12/06 06:57:22;;;;;;;6.97;4.03;;;;;;;-3.55;93.23;100489.63;6165089;23;20020;-76
2021/12/06 06:59:52;;;;;;;11.57;6.95;;;;;;;-3.59;93.07;100478.53;6237862;23;20370;-76
2021/12/06 07:02:20;;;;;;;3.85;3.53;;;;;;;-3.77;92.53;100457.94;6231745;23;20024;-78
2021/12/06 07:05:08;;;;;;;9.50;7.13;;;;;;;-3.56;92.85;100483.69;6208995;23;20043;-78
2021/12/06 07:08:08;;;;;;;8.70;6.40;;;;;;;-3.78;92.66;100474.06;6212944;23;20016;-77
2021/12/06 07:10:49;;;;;;;14.50;8.70;;;;;;;-3.79;93.26;100477.44;6213960;23;20367;-76
2021/12/06 07:13:16;;;;;;;7.90;7.10;;;;;;;-3.76;92.81;100490.22;6210428;23;20020;-78
2021/12/06 07:16:26;;;;;;;6.57;5.28;;;;;;;-3.69;93.14;100494.56;6226323;23;20031;-78
2021/12/06 07:18:58;;;;;;;7.82;7.13;;;;;;;-3.97;92.97;100464.47;6237899;23;20019;-77
2021/12/06 07:21:28;;;;;;;11.45;8.63;;;;;;;-3.88;92.15;100480.72;6191498;23;20142;-76
2021/12/06 07:24:01;;;;;;;9.73;7.68;;;;;;;-3.87;92.30;100512.19;6189661;23;20020;-75
2021/12/06 07:26:38;;;;;;;15.25;11.88;;;;;;;-3.93;92.34;100507.00;6239201;23;20024;-75
2021/12/06 07:29:06;;;;;;;12.13;9.75;;;;;;;-4.02;92.33;100506.84;6241130;23;20027;-76
2021/12/06 07:32:01;;;;;;;9.43;7.38;;;;;;;-3.86;92.70;100504.53;6218210;22;20027;-78
2021/12/06 07:34:30;;;;;;;10.10;9.05;;;;;;;-3.93;92.53;100496.81;6246706;22;20535;-76
2021/12/06 07:37:00;;;;;;;19.05;11.25;;;;;;;-4.02;92.10;100496.66;6274129;22;20023;-79
2021/12/06 07:39:39;;;;;;;13.48;11.38;;;;;;;-3.96;92.44;100524.81;6221816;22;20024;-77
2021/12/06 07:42:20;;;;;;;22.40;11.15;;;;;;;-4.01;92.98;100536.63;6221694;22;20443;-76
2021/12/06 07:44:55;;;;;;;17.45;10.65;;;;;;;-4.10;92.84;100498.25;6199208;22;20016;-76
2021/12/06 07:47:22;;;;;;;15.73;10.43;;;;;;;-3.96;92.19;100523.09;6246633;22;20045;-76
2021/12/06 07:49:48;;;;;;;16.52;10.98;;;;;;;-4.05;92.46;100517.03;6276090;22;20061;-75
2021/12/06 07:52:14;;;;;;;12.10;8.40;;;;;;;-4.00;92.68;100530.69;6256677;22;20051;-79
2021/12/06 07:54:42;;;;;;;21.02;11.80;;;;;;;-4.05;92.71;100527.22;6250663;22;20098;-76
2021/12/06 07:57:08;;;;;;;14.23;12.45;;;;;;;-4.30;93.26;100520.91;6228205;22;20015;-77
2021/12/06 07:59:57;;;;;;;16.65;13.82;;;;;;;-4.32;93.44;100497.94;6256718;22;20026;-79
2021/12/06 08:02:43;;;;;;;18.50;13.18;;;;;;;-4.29;93.39;100513.28;6273336;22;20019;-78
2021/12/06 08:05:32;;;;;;;13.32;8.60;;;;;;;-4.15;92.83;100538.09;6248050;22;20020;-79
2021/12/06 08:08:34;;;;;;;10.90;8.50;;;;;;;-4.02;92.66;100532.34;6248654;22;20019;-78
2021/12/06 08:11:19;;;;;;;15.18;8.45;;;;;;;-4.06;91.52;100512.78;6248708;22;20043;-78
2021/12/06 08:13:50;;;;;;;10.40;7.22;;;;;;;-4.17;91.65;100510.06;6247859;22;20026;-76
2021/12/06 08:16:28;;;;;;;28.30;15.90;;;;;;;-4.08;92.09;100524.63;6225461;22;20107;-76
2021/12/06 08:19:01;;;;;;;17.20;11.63;;;;;;;-4.30;91.69;100518.34;6221859;22;20042;-77
2021/12/06 08:21:30;;;;;;;21.60;11.98;;;;;;;-4.17;91.46;100544.88;6249217;22;20078;-78
2021/12/06 08:23:57;;;;;;;28.52;14.50;;;;;;;-4.36;90.81;100534.41;6247871;22;20019;-79
2021/12/06 08:26:42;;;;;;;14.13;9.15;;;;;;;-4.37;91.15;100530.16;6247283;22;20262;-79
2021/12/06 08:29:29;;;;;;;14.50;11.13;;;;;;;-4.53;91.07;100497.63;6239517;22;20455;-75
2021/12/06 08:31:56;;;;;;;;;;;;;;;-4.32;90.83;100551.44;6195446;22;20455;-76
2021/12/06 08:34:23;;;;;;;15.05;9.93;;;;;;;-4.54;90.71;100525.59;6273753;22;19915;-76
2021/12/06 08:36:52;;;;;;;15.68;9.52;;;;;;;-4.44;90.73;100558.03;6272215;22;20736;-76
2021/12/06 08:39:18;;;;;;;12.30;7.55;;;;;;;-4.40;90.84;100565.75;6248188;22;20019;-76
2021/12/06 08:41:45;;;;;;;21.85;14.00;;;;;;;-4.37;90.81;100560.72;6247068;22;20016;-74
2021/12/06 08:44:11;;;;;;;21.38;12.82;;;;;;;-4.42;91.08;100572.53;6272506;22;20435;-74
2021/12/06 08:46:39;;;;;;;43.15;20.35;;;;;;;-4.43;91.37;100559.75;6246589;22;20020;-75
2021/12/06 08:49:06;;;;;;;41.90;21.55;;;;;;;-4.44;91.25;100578.41;6222170;22;20410;-74
2021/12/06 08:51:35;;;;;;;18.77;11.63;;;;;;;-4.44;91.09;100574.19;6246739;22;20027;-74
2021/12/06 08:54:01;;;;;;;21.52;11.52;;;;;;;-4.47;90.76;100570.72;6268630;22;20020;-77
2021/12/06 08:56:53;;;;;;;33.65;18.42;;;;;;;-4.57;91.53;100541.69;6245635;22;20019;-80
2021/12/06 08:59:52;;;;;;;41.72;18.38;;;;;;;-4.42;91.38;100567.44;6273633;22;20016;-78
2021/12/06 09:02:51;;;;;;;26.13;12.18;;;;;;;-4.44;91.23;100569.09;6223607;22;20026;-77
2021/12/06 09:06:12;;;;;;;11.32;7.82;;;;;;;-4.59;91.02;100553.56;6223227;22;20054;-78
2021/12/06 09:08:45;;;;;;;34.30;18.10;;;;;;;-4.55;91.12;100550.25;6119818;23;20026;-77
2021/12/06 09:11:15;;;;;;;17.80;8.63;;;;;;;-4.52;90.91;100540.09;6128224;22;20023;-78
2021/12/06 09:13:44;;;;;;;33.33;14.98;;;;;;;-4.50;90.94;100543.50;6247170;22;20021;-77
2021/12/06 09:16:11;;;;;;;38.50;17.83;;;;;;;-4.50;90.87;100543.50;6246448;22;20086;-78
2021/12/06 09:19:01;;;;;;;16.60;9.43;;;;;;;-4.53;90.97;100552.78;6221135;22;20249;-79
2021/12/06 09:21:26;;;;;;;21.60;12.23;;;;;;;-4.49;90.88;100560.53;6246045;22;20024;-78
2021/12/06 09:23:53;;;;;;;35.78;18.05;;;;;;;-4.52;91.13;100539.22;6244576;22;20026;-75
2021/12/06 09:26:19;;;;;;;29.45;14.65;;;;;;;-4.52;91.44;100557.94;6271744;22;20509;-78
2021/12/06 09:28:45;;;;;;;14.75;11.10;;;;;;;-4.53;91.42;100556.19;6271400;22;20015;-79
2021/12/06 09:31:11;;;;;;;17.67;12.43;;;;;;;-4.59;91.21;100548.47;6214644;23;20024;-77
2021/12/06 09:33:38;;;;;;;14.05;8.63;;;;;;;-4.56;91.58;100556.16;6189431;23;20028;-76
2021/12/06 09:36:04;;;;;;;16.67;9.48;;;;;;;-4.50;91.69;100561.34;6241742;22;20039;-78
2021/12/06 09:38:36;;;;;;;18.35;10.77;;;;;;;-4.51;91.94;100551.97;6237693;23;20534;-78
2021/12/06 09:41:03;;;;;;;13.00;8.15;;;;;;;-4.50;91.59;100553.69;6240261;22;20016;-79
2021/12/06 09:43:29;;;;;;;14.27;8.85;;;;;;;-4.47;91.66;100561.41;6241542;22;20086;-79
2021/12/06 09:45:55;;;;;;;18.92;10.68;;;;;;;-4.49;91.79;100547.78;6241366;22;20020;-78
2021/12/06 09:48:22;;;;;;;15.00;8.70;;;;;;;-4.45;91.83;100567.38;6239389;23;20011;-79
2021/12/06 09:50:55;;;;;;;20.88;10.68;;;;;;;-4.43;91.60;100565.72;6265016;22;20019;-78
2021/12/06 09:53:30;;;;;;;17.13;11.00;;;;;;;-4.31;91.39;100571.00;6240251;23;20074;-79
2021/12/06 09:56:05;;;;;;;25.00;11.88;;;;;;;-4.34;91.25;100560.75;6241027;23;20020;-79
2021/12/06 09:58:32;;;;;;;35.95;15.15;;;;;;;-4.26;91.24;100568.53;6216579;23;20023;-77
2021/12/06 10:01:06;;;;;;;49.90;25.30;;;;;;;-4.30;91.27;100554.91;6190216;23;20016;-78
2021/12/06 10:03:33;;;;;;;34.78;18.33;;;;;;;-4.33;91.19;100577.78;6220388;23;20016;-78
2021/12/06 10:06:04;;;;;;;25.17;12.80;;;;;;;-4.29;91.13;100579.53;6246054;23;20020;-76
2021/12/06 10:09:08;;;;;;;39.92;18.35;;;;;;;-4.30;91.15;100582.94;6244023;23;20505;-81
2021/12/06 10:11:36;;;;;;;46.60;18.85;;;;;;;-4.47;90.88;100560.53;6201932;23;20502;-76
2021/12/06 10:14:04;;;;;;;33.83;14.40;;;;;;;-4.29;91.50;100574.41;6216024;23;20075;-77
2021/12/06 10:16:31;;;;;;;5.63;5.13;;;;;;;-4.33;90.80;100547.19;6216341;23;20051;-77
2021/12/06 10:19:21;;;;;;;13.02;8.15;;;;;;;-4.31;91.00;100565.03;6221304;23;20451;-76
2021/12/06 10:21:52;;;;;;;14.13;10.85;;;;;;;-4.43;90.84;100535.16;6242312;22;20028;-79
2021/12/06 10:24:34;;;;;;;22.40;9.60;;;;;;;-4.41;90.63;100541.09;6238878;23;20103;-76
2021/12/06 10:27:13;;;;;;;13.75;8.23;;;;;;;-4.22;90.58;100567.72;6204010;23;20023;-76
2021/12/06 10:29:47;;;;;;;12.93;10.77;;;;;;;-4.20;90.79;100548.25;6250315;22;20074;-77
2021/12/06 10:32:21;;;;;;;27.35;12.50;;;;;;;-4.22;90.93;100560.09;6247525;22;20031;-76
2021/12/06 10:34:58;;;;;;;20.75;12.45;;;;;;;-4.28;91.13;100560.84;6195337;22;20023;-75
2021/12/06 10:38:00;;;;;;;16.15;10.75;;;;;;;-4.21;90.95;100572.88;6274555;22;20016;-76
2021/12/06 10:41:09;;;;;;;17.15;9.80;;;;;;;-4.19;90.89;100575.47;6181331;22;20024;-76
2021/12/06 10:43:59;;;;;;;24.25;13.75;;;;;;;-4.22;91.18;100560.94;6217819;22;20477;-75
2021/12/06 10:46:26;;;;;;;10.23;8.52;;;;;;;-4.24;90.68;100562.63;6245120;22;20038;-76
2021/12/06 10:48:59;;;;;;;19.65;11.25;;;;;;;-4.13;90.89;100573.00;6243537;22;20099;-76
2021/12/06 10:51:26;;;;;;;16.38;9.80;;;;;;;-4.11;90.56;100563.69;6218270;22;20619;-76
2021/12/06 10:54:07;;;;;;;23.05;13.43;;;;;;;-4.10;90.51;100564.53;6222047;22;20015;-75
2021/12/06 10:56:44;;;;;;;34.38;16.33;;;;;;;-4.09;90.53;100571.38;6199746;22;20390;-78
2021/12/06 10:59:20;;;;;;;12.43;7.00;;;;;;;-4.08;90.57;100567.97;6273912;22;20044;-77
2021/12/06 11:01:48;;;;;;;23.98;13.93;;;;;;;-4.07;90.62;100569.69;6274592;22;20378;-78
2021/12/06 11:04:16;;;;;;;30.50;13.85;;;;;;;-4.06;90.30;100577.38;6273501;22;20016;-78
2021/12/06 11:06:45;;;;;;;16.63;10.38;;;;;;;-4.13;90.35;100575.56;6196630;22;20015;-77
2021/12/06 11:09:13;;;;;;;12.35;8.25;;;;;;;-4.17;90.85;100585.66;6246231;22;20019;-77
2021/12/06 11:11:53;;;;;;;14.52;10.10;;;;;;;-4.06;90.85;100592.66;6243046;22;20023;-78
2021/12/06 11:14:22;;;;;;;14.52;9.25;;;;;;;-4.06;90.82;100596.91;6272941;22;20019;-78
2021/12/06 11:16:57;;;;;;;14.05;9.02;;;;;;;-4.05;90.69;100598.59;6271914;22;20047;-76
2021/12/06 11:19:39;;;;;;;11.35;7.28;;;;;;;-3.98;90.61;100587.66;6195459;22;20791;-77
2021/12/06 11:22:07;;;;;;;10.27;8.25;;;;;;;-4.09;90.52;100586.66;6275618;22;20019;-78
2021/12/06 11:24:51;;;;;;;8.82;7.45;;;;;;;-4.00;91.01;100584.25;6220837;22;20378;-79
2021/12/06 11:27:29;;;;;;;7.45;5.93;;;;;;;-3.96;90.97;100586.00;6247637;22;20026;-79
2021/12/06 11:29:55;;;;;;;12.65;8.95;;;;;;;-4.04;90.66;100577.38;6239068;23;20430;-78
2021/12/06 11:32:24;;;;;;;27.88;13.05;;;;;;;-4.03;90.82;100586.75;6241669;23;20047;-76
2021/12/06 11:34:58;;;;;;;8.95;7.82;;;;;;;-3.93;90.64;100589.47;6238663;22;20456;-78
2021/12/06 11:37:33;;;;;;;15.55;8.73;;;;;;;-4.09;90.88;100607.88;6241954;23;20020;-76
2021/12/06 11:40:10;;;;;;;16.50;9.85;;;;;;;-4.03;90.96;100604.59;6189381;23;20111;-75
2021/12/06 11:43:00;;;;;;;14.15;8.65;;;;;;;-4.00;91.09;100614.84;6241587;22;20016;-75
2021/12/06 11:45:49;;;;;;;21.50;12.18;;;;;;;-3.95;91.09;100618.28;6217068;23;20020;-77
2021/12/06 11:48:29;;;;;;;16.25;8.15;;;;;;;-3.98;90.96;100597.84;6241963;23;20055;-76
2021/12/06 11:51:11;;;;;;;16.67;12.57;;;;;;;-4.07;91.11;100590.94;6215676;23;20734;-77
2021/12/06 11:53:46;;;;;;;18.75;11.00;;;;;;;-4.09;91.34;100596.84;6215025;23;20020;-78
2021/12/06 11:56:18;;;;;;;15.82;11.55;;;;;;;-4.06;91.35;100591.78;6241111;23;20028;-78
2021/12/06 11:58:46;;;;;;;;;;;;;;;-3.99;91.21;100604.63;6242010;23;20546;-78
2021/12/06 12:01:16;;;;;;;10.57;8.52;;;;;;;-3.99;91.20;100603.81;6242344;23;19969;-78
2021/12/06 12:03:49;;;;;;;8.40;6.47;;;;;;;-4.00;91.25;100600.41;6241822;23;20099;-75
2021/12/06 12:06:39;;;;;;;17.98;10.65;;;;;;;-3.96;91.20;100609.78;6241804;23;20022;-75
2021/12/06 12:09:11;;;;;;;9.23;7.32;;;;;;;-3.95;91.32;100605.53;6214669;23;20024;-75
2021/12/06 12:11:59;;;;;;;11.05;8.10;;;;;;;-3.92;91.27;100610.69;6238906;23;20023;-75
2021/12/06 12:14:42;;;;;;;12.77;8.32;;;;;;;-3.97;91.14;100607.22;6240930;23;20020;-76
2021/12/06 12:17:15;;;;;;;10.90;9.35;;;;;;;-4.00;91.56;100604.63;6239844;23;20020;-75
2021/12/06 12:19:41;;;;;;;5.90;5.30;;;;;;;-4.02;91.57;100611.38;6218549;23;20511;-75
2021/12/06 12:22:08;;;;;;;13.57;9.98;;;;;;;-3.95;91.56;100613.19;6267591;22;20028;-75
2021/12/06 12:25:19;;;;;;;;;;;;;;;;;;;;;
2021/12/06 12:28:38;;;;;;;12.13;9.13;;;;;;;-3.97;91.26;100592.78;6240209;23;20370;-77
2021/12/06 12:31:07;;;;;;;14.45;9.75;;;;;;;-3.92;91.36;100590.28;6216959;23;20023;-77
2021/12/06 12:33:33;;;;;;;6.97;6.38;;;;;;;-3.93;91.22;100596.25;6240833;23;20016;-76
2021/12/06 12:36:12;;;;;;;11.00;8.43;;;;;;;-3.91;91.22;100592.03;6241225;23;20073;-75
2021/12/06 12:38:39;;;;;;;6.20;5.65;;;;;;;-3.84;91.30;100610.00;6214224;23;20019;-76
2021/12/06 12:41:09;;;;;;;14.95;9.65;;;;;;;-3.85;90.98;100608.28;6242179;22;20103;-75
2021/12/06 12:43:36;;;;;;;7.22;6.65;;;;;;;-3.81;91.31;100610.03;6242162;23;20455;-80
2021/12/06 12:46:08;;;;;;;13.20;7.68;;;;;;;-3.80;91.08;100611.75;6242336;22;20020;-78
2021/12/06 12:48:57;;;;;;;18.52;11.00;;;;;;;-3.80;90.86;100605.81;6239901;23;20015;-78
2021/12/06 12:51:30;;;;;;;13.93;8.85;;;;;;;-3.81;91.00;100601.53;6239934;23;20039;-79
2021/12/06 12:54:18;;;;;;;8.77;7.07;;;;;;;-3.79;91.10;100610.91;6239799;22;20452;-79
2021/12/06 12:56:45;;;;;;;9.35;7.45;;;;;;;-3.77;91.07;100605.84;6211676;23;20853;-77
2021/12/06 12:59:31;;;;;;;11.90;8.30;;;;;;;-3.82;90.94;100612.56;6241831;23;20099;-76
2021/12/06 13:02:34;;;;;;;12.75;9.02;;;;;;;-3.80;90.91;100599.00;6215994;23;20024;-77
2021/12/06 13:05:00;;;;;;;15.30;8.85;;;;;;;-3.79;90.97;100594.75;6244205;22;20039;-76
2021/12/06 13:07:30;;;;;;;7.47;5.80;;;;;;;-3.77;91.02;100605.84;6269444;22;20043;-78
2021/12/06 13:09:58;;;;;;;15.20;8.88;;;;;;;-3.79;91.18;100602.38;6242043;23;20228;-77
2021/12/06 13:12:28;;;;;;;9.85;6.78;;;;;;;-3.81;91.10;100606.63;6218362;23;20043;-78
2021/12/06 13:14:58;;;;;;;9.40;6.20;;;;;;;-3.75;91.17;100605.03;6244262;23;20031;-77
2021/12/06 13:17:31;;;;;;;10.23;8.15;;;;;;;-3.80;90.87;100593.91;6221408;23;20016;-77
2021/12/06 13:20:20;;;;;;;14.10;9.68;;;;;;;-3.80;91.68;100596.47;6246660;23;20410;-76
2021/12/06 13:22:50;;;;;;;11.35;9.60;;;;;;;-3.84;91.58;100598.94;6244369;23;20024;-77
2021/12/06 13:25:19;;;;;;;11.82;8.98;;;;;;;-3.80;91.40;100599.00;6242079;22;20015;-76
2021/12/06 13:28:07;;;;;;;14.25;9.70;;;;;;;-3.80;91.51;100590.50;6243271;23;20020;-77
2021/12/06 13:30:44;;;;;;;8.32;6.53;;;;;;;-3.77;91.42;100600.75;6219644;23;20031;-76
2021/12/06 13:33:21;;;;;;;17.30;9.18;;;;;;;-3.75;91.45;100599.06;6247366;22;20020;-76
2021/12/06 13:35:56;;;;;;;15.45;10.07;;;;;;;-3.73;91.51;100589.75;6243989;23;20111;-75
2021/12/06 13:38:36;;;;;;;6.47;5.70;;;;;;;-3.72;91.18;100591.44;6246563;22;20027;-76
2021/12/06 13:41:19;;;;;;;14.52;8.95;;;;;;;-3.72;91.26;100588.91;6246104;23;20027;-76
2021/12/06 13:44:04;;;;;;;17.00;9.70;;;;;;;-3.70;91.05;100602.56;6246353;22;20027;-76
2021/12/06 13:46:32;;;;;;;15.00;10.00;;;;;;;-3.67;90.88;100578.78;6242495;23;20015;-75
2021/12/06 13:49:13;;;;;;;12.48;8.07;;;;;;;-3.63;90.89;100589.03;6243086;22;20397;-75
2021/12/06 13:51:45;;;;;;;12.13;8.20;;;;;;;-3.63;90.89;100586.47;6246962;22;20051;-76
2021/12/06 13:54:12;;;;;;;12.60;8.02;;;;;;;-3.64;90.84;100577.13;6251871;23;20213;-77
2021/12/06 13:56:40;;;;;;;7.85;6.20;;;;;;;-3.68;90.77;100580.47;6225303;23;20024;-76
2021/12/06 13:59:06;;;;;;;10.38;7.88;;;;;;;-3.63;90.93;100589.03;6273445;22;20023;-75
2021/12/06 14:01:34;;;;;;;14.95;7.97;;;;;;;-3.65;90.96;100585.59;6249371;23;20471;-78
2021/12/06 14:04:08;;;;;;;22.38;12.68;;;;;;;-3.63;90.88;100593.28;6246144;23;20394;-75
2021/12/06 14:06:54;;;;;;;17.65;9.77;;;;;;;-3.60;90.75;100589.09;6245256;23;20066;-75
2021/12/06 14:09:31;;;;;;;24.40;11.85;;;;;;;-3.61;90.96;100582.25;6247189;23;20387;-76
2021/12/06 14:12:00;;;;;;;23.30;14.27;;;;;;;-3.61;90.76;100581.41;6219854;23;20024;-76
2021/12/06 14:14:26;;;;;;;26.23;13.98;;;;;;;-3.60;90.72;100572.94;6219937;23;20058;-77
2021/12/06 14:16:53;;;;;;;24.58;14.75;;;;;;;-3.59;90.94;100578.03;6245357;23;20032;-78
2021/12/06 14:19:22;;;;;;;23.67;11.93;;;;;;;-3.62;90.95;100575.44;6219091;23;20016;-76
2021/12/06 14:21:50;;;;;;;29.33;11.57;;;;;;;-3.61;91.05;100577.16;6194430;23;20020;-76
2021/12/06 14:24:17;;;;;;;18.75;11.65;;;;;;;-3.60;91.03;100580.56;6192117;23;20091;-76
2021/12/06 14:26:44;;;;;;;28.15;11.50;;;;;;;-3.62;90.90;100575.44;6193693;23;20100;-76
2021/12/06 14:29:24;;;;;;;17.13;11.07;;;;;;;-3.58;91.15;100577.19;6247270;22;20043;-76
2021/12/06 14:31:52;;;;;;;45.88;20.75;;;;;;;-3.55;91.11;100592.56;6249689;22;20046;-76
2021/12/06 14:34:19;;;;;;;28.42;12.85;;;;;;;-3.56;90.80;100595.06;6223976;22;20043;-76
2021/12/06 14:36:45;;;;;;;40.42;18.35;;;;;;;-3.55;90.93;100590.00;6248358;22;20026;-77
2021/12/06 14:39:25;;;;;;;47.95;20.27;;;;;;;-3.53;90.84;100595.97;6245261;22;20016;-79
2021/12/06 14:41:53;;;;;;;50.28;20.33;;;;;;;-3.52;90.93;100597.69;6248951;22;20016;-79
2021/12/06 14:44:57;;;;;;;31.40;13.52;;;;;;;-3.47;90.75;100597.78;6276063;22;20354;-78
2021/12/06 14:47:23;;;;;;;37.47;22.33;;;;;;;-3.52;90.92;100591.72;6231165;22;20047;-78
2021/12/06 14:49:49;;;;;;;24.35;12.77;;;;;;;-3.50;90.81;100580.69;6273695;22;20015;-78
2021/12/06 14:52:21;;;;;;;55.05;19.23;;;;;;;-3.56;90.83;100585.72;6249528;22;20045;-77
2021/12/06 14:57:48;;;;;;;83.53;25.55;;;;;;;-3.59;91.01;100589.91;6252416;22;20039;-77
2021/12/06 15:00:24;;;;;;;64.32;21.27;;;;;;;-3.62;91.24;100590.75;6244509;22;20023;-76
2021/12/06 15:02:54;;;;;;;38.17;15.65;;;;;;;-3.61;90.96;100582.25;6220836;22;20497;-76
2021/12/06 15:05:23;;;;;;;50.40;20.33;;;;;;;-3.59;91.17;100600.13;6249347;22;20026;-76
2021/12/06 15:07:55;;;;;;;23.45;13.13;;;;;;;-3.62;91.23;100575.44;6249733;22;20015;-76
2021/12/06 15:10:21;;;;;;;51.40;22.20;;;;;;;-3.62;91.33;100593.28;6223046;22;20046;-76
2021/12/06 15:12:49;;;;;;;37.00;17.58;;;;;;;-3.59;91.45;100595.88;6274008;22;20278;-76
2021/12/06 15:15:23;;;;;;;22.83;11.93;;;;;;;-3.60;91.05;100593.34;6222293;22;20119;-76
2021/12/06 15:17:51;;;;;;;22.20;11.65;;;;;;;-3.59;91.17;100595.88;6274559;22;20016;-76
2021/12/06 15:20:17;;;;;;;42.55;17.58;;;;;;;-3.63;91.40;100588.19;6223408;22;20423;-76
2021/12/06 15:22:43;;;;;;;39.33;21.25;;;;;;;-3.60;91.58;100595.88;6246843;22;20061;-76
2021/12/06 15:25:11;;;;;;;12.98;8.70;;;;;;;-3.64;91.17;100592.44;6245291;22;20472;-76
2021/12/06 15:27:40;;;;;;;20.05;12.00;;;;;;;-3.63;91.33;100604.31;6251268;22;20015;-76
2021/12/06 15:30:11;;;;;;;47.70;21.92;;;;;;;-3.67;91.62;100602.59;6250469;22;20081;-77
2021/12/06 15:32:38;;;;;;;39.40;18.27;;;;;;;-3.66;91.76;100604.28;6249639;22;20093;-77
2021/12/06 15:35:05;;;;;;;49.40;23.90;;;;;;;-3.67;91.49;100596.63;6224403;22;20059;-76
2021/12/06 15:37:31;;;;;;;28.25;14.45;;;;;;;-3.72;92.02;100597.41;6249934;22;20512;-76
2021/12/06 15:39:58;;;;;;;25.77;12.35;;;;;;;-3.65;91.79;100606.00;6249692;22;20027;-76
2021/12/06 15:42:27;;;;;;;45.45;19.23;;;;;;;-3.65;91.43;100590.72;6248552;22;20026;-76
2021/12/06 15:44:54;;;;;;;31.35;17.98;;;;;;;-3.66;91.67;100591.53;6248245;22;20026;-76
2021/12/06 15:47:31;;;;;;;16.88;10.48;;;;;;;-3.63;91.74;100568.63;6246807;22;20019;-76
2021/12/06 15:49:58;;;;;;;41.65;17.10;;;;;;;-3.63;91.62;100594.13;6273537;22;20024;-76
2021/12/06 15:52:25;;;;;;;46.28;19.52;;;;;;;-3.61;91.85;100586.50;6220548;22;20030;-76
2021/12/06 15:55:23;;;;;;;28.85;12.63;;;;;;;-3.59;91.59;100580.59;6276383;22;20016;-77
2021/12/06 15:57:50;;;;;;;25.75;13.73;;;;;;;-3.55;91.61;100577.25;6250122;22;20465;-76
2021/12/06 16:00:25;;;;;;;46.17;18.05;;;;;;;-3.53;91.65;100582.38;6198795;22;20225;-76
2021/12/06 16:02:53;;;;;;;19.50;12.18;;;;;;;-3.58;91.74;100572.09;6248148;22;20020;-75
2021/12/06 16:05:31;;;;;;;17.67;12.98;;;;;;;-3.55;91.53;100572.13;6246248;22;20016;-75
2021/12/06 16:08:09;;;;;;;26.38;12.48;;;;;;;-3.51;91.55;100594.31;6274507;22;20024;-74
2021/12/06 16:10:40;;;;;;;29.20;14.82;;;;;;;-3.52;91.32;100587.50;6273691;22;20020;-75
2021/12/06 16:13:15;;;;;;;7.53;6.28;;;;;;;-3.52;91.59;100577.28;6245418;22;20026;-74
2021/12/06 16:15:42;;;;;;;12.57;9.52;;;;;;;-3.48;91.58;100583.28;6244562;22;20090;-75
2021/12/06 16:18:13;;;;;;;17.40;11.30;;;;;;;-3.45;91.40;100579.09;6222271;22;20031;-74
2021/12/06 16:20:46;;;;;;;14.77;9.70;;;;;;;-3.46;91.56;100576.50;6198840;22;20074;-76
2021/12/06 16:23:14;;;;;;;8.57;6.93;;;;;;;-3.42;91.62;100579.13;6280892;22;20091;-75
2021/12/06 16:25:50;;;;;;;26.67;14.50;;;;;;;-3.47;91.24;100569.69;6222906;22;20015;-75
2021/12/06 16:28:20;;;;;;;17.63;10.90;;;;;;;-3.44;91.45;100572.28;6220627;22;20016;-76
2021/12/06 16:31:08;;;;;;;26.27;14.70;;;;;;;-3.49;91.33;100562.00;6224007;22;20031;-75
2021/12/06 16:33:46;;;;;;;25.15;11.38;;;;;;;-3.45;91.34;100543.34;6197266;22;20101;-75
2021/12/06 16:36:19;;;;;;;40.33;17.23;;;;;;;-3.42;91.57;100557.84;6271961;22;20042;-75
2021/12/06 16:38:46;;;;;;;37.03;19.15;;;;;;;-3.40;91.66;100556.16;6245674;22;20029;-78
2021/12/06 16:41:17;;;;;;;58.45;31.67;;;;;;;-3.41;91.41;100552.78;6222553;22;20098;-75
2021/12/06 16:43:45;;;;;;;43.13;20.33;;;;;;;-3.44;91.64;100560.38;6245655;22;20108;-75
2021/12/06 16:46:11;;;;;;;20.55;12.13;;;;;;;-3.41;91.42;100546.81;6270704;22;20012;-74
2021/12/06 16:48:56;;;;;;;20.45;12.90;;;;;;;-3.38;91.58;100555.34;6220920;22;20214;-75
2021/12/06 16:51:42;;;;;;;19.70;12.07;;;;;;;-3.41;91.41;100549.34;6245526;22;20019;-75
2021/12/06 16:54:28;;;;;;;32.88;14.95;;;;;;;-3.37;91.77;100549.41;6244137;22;20027;-75
2021/12/06 16:56:57;;;;;;;35.55;17.13;;;;;;;-3.36;91.52;100563.88;6244083;22;20016;-75
2021/12/06 16:59:37;;;;;;;29.55;17.38;;;;;;;-3.43;91.57;100546.78;6247767;22;20015;-74
2021/12/06 17:02:10;;;;;;;22.02;12.80;;;;;;;-3.35;91.50;100554.53;6245789;22;20032;-78
2021/12/06 17:08:07;;;;;;;12.52;7.75;;;;;;;-3.57;91.29;100504.94;6206378;23;20020;-75
2021/12/06 17:10:36;;;;;;;23.95;15.32;;;;;;;-3.33;91.58;100548.59;6191155;22;20099;-74
2021/12/06 17:13:03;;;;;;;21.95;12.90;;;;;;;-3.32;91.17;100564.78;6271766;22;20470;-76
2021/12/06 17:15:40;;;;;;;37.13;18.92;;;;;;;-3.32;91.35;100570.75;6247778;22;20026;-76
2021/12/06 17:18:09;;;;;;;20.83;14.48;;;;;;;-3.30;91.09;100558.84;6251974;22;20035;-75
2021/12/06 17:20:46;;;;;;;39.50;18.33;;;;;;;-3.26;91.45;100568.25;6221814;22;20478;-76
2021/12/06 17:23:33;;;;;;;23.15;13.65;;;;;;;-3.24;91.24;100558.91;6271615;22;20483;-77
2021/12/06 17:26:25;;;;;;;20.33;14.63;;;;;;;-3.25;90.95;100551.25;6218213;22;20312;-74
2021/12/06 17:29:03;;;;;;;13.75;10.23;;;;;;;-3.23;91.35;100560.63;6271228;22;20349;-75
2021/12/06 17:31:31;;;;;;;28.63;14.75;;;;;;;-3.21;91.45;100556.41;6271800;22;20031;-75
2021/12/06 17:34:15;;;;;;;16.20;12.02;;;;;;;-3.26;91.23;100550.41;6244504;22;20024;-75
2021/12/06 17:36:49;;;;;;;27.58;15.93;;;;;;;-3.28;91.40;100552.09;6249238;22;20034;-77
2021/12/06 17:39:18;;;;;;;21.13;12.85;;;;;;;-3.19;91.16;100557.28;6247666;22;20015;-75
2021/12/06 17:41:45;;;;;;;24.92;15.70;;;;;;;-3.19;91.28;100552.19;6244416;22;20038;-74
2021/12/06 17:44:12;;;;;;;22.35;12.10;;;;;;;-3.25;91.11;100548.72;6268497;22;20015;-74
2021/12/06 17:46:39;;;;;;;15.75;11.85;;;;;;;-3.18;91.11;100548.81;6218947;22;20016;-76
2021/12/06 17:49:07;;;;;;;30.45;18.50;;;;;;;-3.19;90.51;100536.88;6168698;22;20539;-74
2021/12/06 17:51:34;;;;;;;19.95;13.73;;;;;;;-3.13;90.74;100535.22;6270328;22;20466;-74
2021/12/06 17:54:00;;;;;;;24.30;16.73;;;;;;;-3.18;90.81;100528.38;6243736;22;20016;-75
2021/12/06 17:56:27;;;;;;;20.85;14.07;;;;;;;-3.08;90.83;100528.47;6244554;22;20019;-75
2021/12/06 17:59:01;;;;;;;19.17;15.88;;;;;;;-3.09;90.74;100542.06;6271109;22;20015;-75
2021/12/06 18:01:44;;;;;;;9.82;8.32;;;;;;;-3.09;90.63;100542.06;6218855;22;20031;-77
2021/12/06 18:04:20;;;;;;;20.67;14.45;;;;;;;-3.06;90.67;100550.63;6222617;22;20015;-77
2021/12/06 18:06:51;;;;;;;27.92;17.42;;;;;;;-3.09;90.46;100537.81;6244157;22;20056;-78
2021/12/06 18:09:25;;;;;;;15.60;11.45;;;;;;;-3.26;90.33;100509.56;6220248;22;20172;-76
2021/12/06 18:11:56;;;;;;;15.48;10.20;;;;;;;-3.05;90.36;100543.81;6219598;22;20027;-76
2021/12/06 18:14:26;;;;;;;20.38;15.73;;;;;;;-3.10;90.03;100525.03;6218823;22;20020;-74
2021/12/06 18:17:01;;;;;;;23.23;16.67;;;;;;;-3.11;90.15;100510.56;6191996;22;20019;-75
2021/12/06 18:19:31;;;;;;;17.88;12.77;;;;;;;-3.21;90.28;100525.75;6192287;22;20269;-76
2021/12/06 18:22:01;;;;;;;22.40;13.48;;;;;;;-3.20;90.09;100503.66;6214328;22;20031;-81
2021/12/06 18:30:38;;;;;;;18.95;13.70;;;;;;;-3.03;89.87;100517.47;6288085;22;20031;-80
2021/12/06 18:33:11;;;;;;;16.65;14.30;;;;;;;-3.26;89.76;100470.41;6229467;22;20022;-80